createdAt,value
2023-03-16T00:02:20.229Z,101459.63
2023-03-16T00:04:47.457Z,101443.34
2023-03-16T00:07:15.788Z,101439.00
2023-03-16T00:09:42.710Z,101446.78
2023-03-16T00:12:17.703Z,101433.91
2023-03-16T00:14:45.893Z,101425.38
2023-03-16T00:17:18.904Z,101428.84
2023-03-16T00:19:57.175Z,101422.88
2023-03-16T00:22:26.391Z,101411.53
2023-03-16T00:24:53.722Z,101409.13
2023-03-16T00:27:22.779Z,101413.44
2023-03-16T00:29:55.729Z,101416.97
2023-03-16T00:32:31.987Z,101413.38
2023-03-16T00:34:58.893Z,101408.16
2023-03-16T00:37:27.780Z,101417.59
2023-03-16T00:39:58.053Z,101423.59
2023-03-16T00:42:31.394Z,101420.09
2023-03-16T00:44:59.256Z,101420.41
2023-03-16T00:47:30.752Z,101423.84
2023-03-16T00:49:58.129Z,101412.66
2023-03-16T00:52:27.256Z,101415.44
2023-03-16T00:54:54.817Z,101412.25
2023-03-16T00:57:24.675Z,101401.69
2023-03-16T00:59:51.295Z,101400.25
2023-03-16T01:02:23.218Z,101398.56
2023-03-16T01:04:49.731Z,101407.13
2023-03-16T01:07:16.215Z,101401.00
2023-03-16T01:09:43.506Z,101387.38
2023-03-16T01:12:18.398Z,101385.56
2023-03-16T01:14:46.050Z,101371.69
2023-03-16T01:17:14.146Z,101362.22
2023-03-16T01:19:41.928Z,101357.78
2023-03-16T01:22:10.346Z,101365.25
2023-03-16T01:24:37.417Z,101362.59
2023-03-16T01:27:04.887Z,101366.81
2023-03-16T01:29:32.162Z,101359.81
2023-03-16T01:31:59.211Z,101355.38
2023-03-16T01:34:25.662Z,101362.22
2023-03-16T01:36:52.595Z,101357.16
2023-03-16T01:39:19.133Z,101343.59
2023-03-16T01:41:46.908Z,101344.38
2023-03-16T01:44:24.275Z,101337.38
2023-03-16T01:46:51.074Z,101329.59
2023-03-16T01:49:34.178Z,101325.50
2023-03-16T01:52:13.536Z,101327.03
2023-03-16T01:54:49.010Z,101328.03
2023-03-16T01:57:21.908Z,101330.44
2023-03-16T02:00:15.060Z,101328.56
2023-03-16T02:02:44.817Z,101327.78
2023-03-16T02:05:19.581Z,101331.16
2023-03-16T02:07:52.134Z,101331.16
2023-03-16T02:10:20.389Z,101329.34
2023-03-16T02:12:47.412Z,101325.13
2023-03-16T02:15:14.816Z,101327.59
2023-03-16T02:17:43.875Z,101323.28
2023-03-16T02:20:28.924Z,101308.59
2023-03-16T02:22:56.016Z,101312.22
2023-03-16T02:25:29.028Z,101296.94
2023-03-16T02:28:08.686Z,101296.16
2023-03-16T02:30:35.605Z,101292.69
2023-03-16T02:33:04.879Z,101289.44
2023-03-16T02:35:32.263Z,101285.16
2023-03-16T02:37:58.814Z,101276.53
2023-03-16T02:40:31.887Z,101280.06
2023-03-16T02:43:18.763Z,101272.97
2023-03-16T02:45:58.427Z,101272.13
2023-03-16T02:48:32.237Z,101275.53
2023-03-16T02:50:58.907Z,101279.75
2023-03-16T02:53:25.456Z,101263.47
2023-03-16T02:55:52.053Z,101278.31
2023-03-16T02:58:19.228Z,101270.56
2023-03-16T03:00:45.796Z,101268.41
2023-03-16T03:03:12.347Z,101262.44
2023-03-16T03:05:38.909Z,101260.72
2023-03-16T03:08:06.472Z,101262.63
2023-03-16T03:10:33.379Z,101253.56
2023-03-16T03:13:00.072Z,101239.88
2023-03-16T03:15:26.560Z,101247.50
2023-03-16T03:17:53.819Z,101239.75
2023-03-16T03:20:21.532Z,101231.34
2023-03-16T03:22:49.827Z,101244.25
2023-03-16T03:25:18.269Z,101242.84
2023-03-16T03:27:45.898Z,101239.53
2023-03-16T03:30:15.719Z,101238.88
2023-03-16T03:32:44.120Z,101235.44
2023-03-16T03:35:12.696Z,101239.88
2023-03-16T03:37:41.043Z,101245.13
2023-03-16T03:40:10.386Z,101233.22
2023-03-16T03:42:37.710Z,101245.50
2023-03-16T03:45:04.939Z,101244.78
2023-03-16T03:47:31.782Z,101241.63
2023-03-16T03:49:58.185Z,101241.75
2023-03-16T03:52:24.728Z,101241.75
2023-03-16T03:54:51.509Z,101238.44
2023-03-16T03:57:19.101Z,101239.69
2023-03-16T03:59:46.290Z,101241.13
2023-03-16T04:02:14.062Z,101243.84
2023-03-16T04:04:41.898Z,101247.91
2023-03-16T04:07:08.788Z,101234.19
2023-03-16T04:09:35.377Z,101244.25
2023-03-16T04:12:03.285Z,101247.00
2023-03-16T04:14:30.025Z,101240.16
2023-03-16T04:16:57.020Z,101235.88
2023-03-16T04:19:24.978Z,101234.06
2023-03-16T04:21:52.178Z,101231.44
2023-03-16T04:24:19.074Z,101223.75
2023-03-16T04:26:46.042Z,101232.22
2023-03-16T04:29:18.190Z,101222.69
2023-03-16T04:31:45.444Z,101214.97
2023-03-16T04:34:12.733Z,101215.72
2023-03-16T04:36:39.563Z,101208.16
2023-03-16T04:39:06.676Z,101207.25
2023-03-16T04:41:36.079Z,101202.72
2023-03-16T04:44:02.817Z,101204.16
2023-03-16T04:46:29.582Z,101196.47
2023-03-16T04:48:58.292Z,101194.91
2023-03-16T04:51:25.742Z,101204.28
2023-03-16T04:53:52.403Z,101198.34
2023-03-16T04:56:19.057Z,101194.84
2023-03-16T04:58:47.833Z,101187.06
2023-03-16T05:01:15.169Z,101185.56
2023-03-16T05:03:41.801Z,101188.91
2023-03-16T05:06:08.625Z,101189.81
2023-03-16T05:08:35.104Z,101185.38
2023-03-16T05:11:01.721Z,101189.69
2023-03-16T05:13:28.229Z,101193.13
2023-03-16T05:15:54.794Z,101186.38
2023-03-16T05:18:22.331Z,101190.91
2023-03-16T05:20:56.450Z,101188.97
2023-03-16T05:23:23.604Z,101189.81
2023-03-16T05:25:50.499Z,101190.47
2023-03-16T05:28:17.693Z,101192.88
2023-03-16T05:30:47.555Z,101190.25
2023-03-16T05:33:14.111Z,101188.44
2023-03-16T05:35:40.759Z,101183.19
2023-03-16T05:38:08.634Z,101186.41
2023-03-16T05:40:35.243Z,101187.19
2023-03-16T05:43:01.698Z,101188.81
2023-03-16T05:45:28.876Z,101186.06
2023-03-16T05:47:55.401Z,101185.06
2023-03-16T05:50:22.342Z,101193.44
2023-03-16T05:52:48.851Z,101186.47
2023-03-16T05:55:17.314Z,101191.53
2023-03-16T05:57:44.440Z,101198.19
2023-03-16T06:00:18.119Z,101194.53
2023-03-16T06:02:50.038Z,101193.63
2023-03-16T06:05:18.915Z,101198.59
2023-03-16T06:07:45.433Z,101198.59
2023-03-16T06:10:12.489Z,101194.16
2023-03-16T06:12:39.240Z,101189.84
2023-03-16T06:15:10.258Z,101197.50
2023-03-16T06:17:37.874Z,101206.13
2023-03-16T06:20:10.496Z,101201.72
2023-03-16T06:22:38.553Z,101195.72
2023-03-16T06:25:05.552Z,101183.72
2023-03-16T06:27:32.103Z,101201.53
2023-03-16T06:29:58.763Z,101201.53
2023-03-16T06:32:25.299Z,101200.63
2023-03-16T06:34:51.756Z,101204.25
2023-03-16T06:37:18.524Z,101201.53
2023-03-16T06:39:45.036Z,101206.31
2023-03-16T06:42:11.508Z,101210.44
2023-03-16T06:44:38.022Z,101211.34
2023-03-16T06:47:04.814Z,101213.00
2023-03-16T06:49:31.365Z,101206.25
2023-03-16T06:51:58.733Z,101203.72
2023-03-16T06:54:25.198Z,101208.88
2023-03-16T06:56:52.315Z,101210.50
2023-03-16T06:59:18.774Z,101214.72
2023-03-16T07:01:45.273Z,101220.41
2023-03-16T07:04:12.677Z,101217.72
2023-03-16T07:06:39.271Z,101220.09
2023-03-16T07:09:06.036Z,101227.66
2023-03-16T07:11:32.691Z,101234.19
2023-03-16T07:13:59.512Z,101238.97
2023-03-16T07:16:26.242Z,101230.97
2023-03-16T07:18:52.908Z,101237.44
2023-03-16T07:21:19.864Z,101251.75
2023-03-16T07:23:46.532Z,101247.22
2023-03-16T07:26:13.980Z,101246.97
2023-03-16T07:28:40.678Z,101238.09
2023-03-16T07:31:07.553Z,101241.19
2023-03-16T07:33:35.324Z,101236.59
2023-03-16T07:36:05.993Z,101232.97
2023-03-16T07:38:32.742Z,101236.28
2023-03-16T07:41:02.157Z,101242.41
2023-03-16T07:43:29.343Z,101236.88
2023-03-16T07:45:56.037Z,101234.75
2023-03-16T07:48:22.580Z,101223.06
2023-03-16T07:50:49.740Z,101228.53
2023-03-16T07:53:16.328Z,101215.59
2023-03-16T07:55:43.452Z,101211.88
2023-03-16T07:58:16.662Z,101205.00
2023-03-16T08:00:43.118Z,101200.97
2023-03-16T08:03:09.743Z,101207.81
2023-03-16T08:05:36.260Z,101212.28
2023-03-16T08:08:02.725Z,101225.56
2023-03-16T08:10:30.000Z,101211.94
2023-03-16T08:12:56.797Z,101206.69
2023-03-16T08:15:23.742Z,101224.31
2023-03-16T08:17:50.409Z,101213.81
2023-03-16T08:20:16.947Z,101217.59
2023-03-16T08:22:46.323Z,101209.69
2023-03-16T08:25:14.439Z,101205.88
2023-03-16T08:27:42.941Z,101199.25
2023-03-16T08:30:12.085Z,101205.13
2023-03-16T08:32:39.835Z,101204.84
2023-03-16T08:35:09.589Z,101224.19
2023-03-16T08:37:36.164Z,101216.38
2023-03-16T08:40:05.013Z,101206.91
2023-03-16T08:42:32.514Z,101208.50
2023-03-16T08:45:00.881Z,101198.81
2023-03-16T08:47:27.394Z,101205.22
2023-03-16T08:49:53.810Z,101207.00
2023-03-16T08:52:20.387Z,101206.16
2023-03-16T08:55:01.451Z,101204.19
2023-03-16T08:57:28.208Z,101201.19
2023-03-16T08:59:54.885Z,101207.22
2023-03-16T09:02:22.118Z,101215.78
2023-03-16T09:04:49.754Z,101218.66
2023-03-16T09:07:16.296Z,101215.69
2023-03-16T09:09:43.809Z,101213.00
2023-03-16T09:12:10.851Z,101217.38
2023-03-16T09:14:38.430Z,101200.91
2023-03-16T09:17:07.689Z,101199.66
2023-03-16T09:19:50.188Z,101188.13
2023-03-16T09:22:17.408Z,101169.00
2023-03-16T09:24:43.904Z,101184.09
2023-03-16T09:27:10.589Z,101180.88
2023-03-16T09:29:37.109Z,101177.44
2023-03-16T09:32:04.109Z,101173.94
2023-03-16T09:34:30.608Z,101167.44
2023-03-16T09:36:57.891Z,101164.53
2023-03-16T09:39:24.568Z,101162.44
2023-03-16T09:42:04.320Z,101157.25
2023-03-16T09:44:37.233Z,101162.38
2023-03-16T09:47:06.087Z,101160.78
2023-03-16T09:49:46.158Z,101149.41
2023-03-16T09:52:30.178Z,101153.34
2023-03-16T09:55:07.013Z,101158.38
2023-03-16T09:57:40.551Z,101154.69
2023-03-16T10:00:24.770Z,101149.19
2023-03-16T10:03:17.652Z,101140.09
2023-03-16T10:05:46.810Z,101141.72
2023-03-16T10:08:22.808Z,101136.09
2023-03-16T10:10:58.498Z,101138.25
2023-03-16T10:13:33.573Z,101133.53
2023-03-16T10:16:05.278Z,101134.41
2023-03-16T10:18:40.435Z,101134.03
2023-03-16T10:21:13.264Z,101133.88
2023-03-16T10:23:42.077Z,101139.94
2023-03-16T10:26:21.488Z,101141.84
2023-03-16T10:28:48.037Z,101147.28
2023-03-16T10:31:17.521Z,101139.16
2023-03-16T10:33:44.692Z,101127.44
2023-03-16T10:36:35.446Z,101114.13
2023-03-16T10:39:10.312Z,101118.13
2023-03-16T10:41:40.171Z,101108.75
2023-03-16T10:44:13.477Z,101108.53
2023-03-16T10:46:48.494Z,101104.56
2023-03-16T10:49:28.334Z,101094.69
2023-03-16T10:51:57.900Z,101096.16
2023-03-16T10:54:31.898Z,101084.69
2023-03-16T10:56:59.352Z,101082.84
2023-03-16T10:59:35.057Z,101080.53
2023-03-16T11:02:09.453Z,101081.00
2023-03-16T11:04:35.971Z,101088.09
2023-03-16T11:07:02.489Z,101081.00
2023-03-16T11:09:33.964Z,101082.59
2023-03-16T11:12:13.745Z,101075.78
2023-03-16T11:14:44.542Z,101071.84
2023-03-16T11:17:16.177Z,101070.47
2023-03-16T11:19:57.684Z,101062.06
2023-03-16T11:22:25.742Z,101053.19
2023-03-16T11:25:07.378Z,101048.09
2023-03-16T11:27:41.418Z,101053.19
2023-03-16T11:30:33.851Z,101049.09
2023-03-16T11:33:00.690Z,101040.28
2023-03-16T11:35:38.459Z,101039.28
2023-03-16T11:38:19.348Z,101029.28
2023-03-16T11:41:10.640Z,101027.66
2023-03-16T11:43:46.822Z,101028.13
2023-03-16T11:46:27.377Z,101023.50
2023-03-16T11:49:13.886Z,101012.94
2023-03-16T11:52:13.043Z,101007.97
2023-03-16T11:54:51.757Z,101004.38
2023-03-16T11:57:34.982Z,100996.19
2023-03-16T12:00:26.133Z,100982.31
2023-03-16T12:03:17.539Z,100985.97
2023-03-16T12:05:47.706Z,100985.31
2023-03-16T12:08:14.638Z,100967.38
2023-03-16T12:10:47.193Z,100973.47
2023-03-16T12:13:53.335Z,100975.25
2023-03-16T12:16:33.218Z,100965.72
2023-03-16T12:19:21.938Z,100961.25
2023-03-16T12:22:02.265Z,100960.09
2023-03-16T12:24:35.660Z,100950.84
2023-03-16T12:27:02.553Z,100950.81
2023-03-16T12:29:41.889Z,100947.59
2023-03-16T12:32:19.168Z,100945.88
2023-03-16T12:35:00.124Z,100932.03
2023-03-16T12:37:26.524Z,100926.97
2023-03-16T12:40:10.636Z,100918.47
2023-03-16T12:43:12.424Z,100911.19
2023-03-16T12:45:57.007Z,100906.44
2023-03-16T12:48:27.358Z,100891.31
2023-03-16T12:51:00.379Z,100900.59
2023-03-16T12:53:43.356Z,100893.72
2023-03-16T12:56:11.950Z,100889.41
2023-03-16T12:58:47.568Z,100891.47
2023-03-16T13:01:16.923Z,100884.03
2023-03-16T13:03:47.138Z,100892.41
2023-03-16T13:06:23.595Z,100885.25
2023-03-16T13:09:01.080Z,100897.66
2023-03-16T13:11:28.552Z,100905.91
2023-03-16T13:14:01.070Z,100888.13
2023-03-16T13:16:30.622Z,100896.19
2023-03-16T13:18:57.463Z,100897.56
2023-03-16T13:21:39.596Z,100896.03
2023-03-16T13:24:34.967Z,100886.78
2023-03-16T13:27:03.712Z,100876.94
2023-03-16T13:29:32.791Z,100879.63
2023-03-16T13:32:02.878Z,100864.97
2023-03-16T13:34:37.571Z,100861.34
2023-03-16T13:37:04.217Z,100851.44
2023-03-16T13:39:32.557Z,100856.63
2023-03-16T13:42:08.300Z,100844.13
2023-03-16T13:44:40.171Z,100837.88
2023-03-16T13:47:07.564Z,100831.16
2023-03-16T13:49:42.996Z,100842.06
2023-03-16T13:52:24.465Z,100827.94
2023-03-16T13:54:52.670Z,100817.50
2023-03-16T13:57:21.995Z,100823.38
2023-03-16T13:59:48.484Z,100817.84
2023-03-16T14:02:19.653Z,100783.13
2023-03-16T14:04:47.061Z,100802.09
2023-03-16T14:07:17.575Z,100811.56
2023-03-16T14:09:45.275Z,100804.66
2023-03-16T14:12:15.205Z,100791.63
2023-03-16T14:14:42.537Z,100786.75
2023-03-16T14:17:21.534Z,100783.19
2023-03-16T14:19:50.570Z,100776.41
2023-03-16T14:22:23.952Z,100773.38
2023-03-16T14:24:59.020Z,100773.25
2023-03-16T14:27:32.979Z,100764.84
2023-03-16T14:30:03.326Z,100758.47
2023-03-16T14:32:32.399Z,100757.22
2023-03-16T14:35:17.459Z,100757.31
2023-03-16T14:37:44.867Z,100755.00
2023-03-16T14:40:28.625Z,100755.84
2023-03-16T14:43:00.529Z,100757.22
2023-03-16T14:45:32.081Z,100752.53
2023-03-16T14:48:05.189Z,100745.06
2023-03-16T14:50:33.541Z,100740.78
2023-03-16T14:53:02.505Z,100739.91
2023-03-16T14:55:29.370Z,100750.03
2023-03-16T14:57:56.060Z,100722.66
2023-03-16T15:00:23.048Z,100730.16
2023-03-16T15:03:03.153Z,100724.63
2023-03-16T15:05:39.440Z,100734.81
2023-03-16T15:08:11.633Z,100733.19
2023-03-16T15:10:39.170Z,100718.38
2023-03-16T15:13:17.186Z,100722.84
2023-03-16T15:15:44.043Z,100709.56
2023-03-16T15:18:10.813Z,100713.03
2023-03-16T15:20:43.235Z,100716.06
2023-03-16T15:23:14.810Z,100722.16
2023-03-16T15:25:43.494Z,100715.53
2023-03-16T15:28:22.221Z,100716.75
2023-03-16T15:30:53.443Z,100713.44
2023-03-16T15:33:20.179Z,100708.34
2023-03-16T15:35:49.209Z,100705.44
2023-03-16T15:38:20.370Z,100698.78
2023-03-16T15:40:48.162Z,100699.06
2023-03-16T15:43:17.034Z,100679.63
2023-03-16T15:45:44.570Z,100681.28
2023-03-16T15:48:11.842Z,100680.44
2023-03-16T15:50:40.959Z,100682.38
2023-03-16T15:53:29.300Z,100675.56
2023-03-16T15:56:02.876Z,100674.84
2023-03-16T15:58:31.566Z,100663.38
2023-03-16T16:01:00.061Z,100672.50
2023-03-16T16:03:27.639Z,100667.16
2023-03-16T16:05:54.569Z,100665.41
2023-03-16T16:08:21.527Z,100674.91
2023-03-16T16:10:49.269Z,100679.63
2023-03-16T16:13:26.730Z,100675.50
2023-03-16T16:15:57.576Z,100656.69
2023-03-16T16:18:35.033Z,100662.59
2023-03-16T16:21:04.312Z,100661.16
2023-03-16T16:23:32.444Z,100644.22
2023-03-16T16:26:07.215Z,100647.41
2023-03-16T16:28:35.003Z,100649.56
2023-03-16T16:31:01.924Z,100647.97
2023-03-16T16:33:30.998Z,100648.69
2023-03-16T16:36:00.604Z,100646.31
2023-03-16T16:38:28.092Z,100632.75
2023-03-16T16:40:58.143Z,100651.06
2023-03-16T16:43:37.436Z,100641.28
2023-03-16T16:46:11.191Z,100638.66
2023-03-16T16:48:42.129Z,100639.75
2023-03-16T16:51:18.369Z,100646.75
2023-03-16T16:53:45.875Z,100646.06
2023-03-16T16:56:18.488Z,100647.88
2023-03-16T16:58:46.381Z,100644.59
2023-03-16T17:01:15.935Z,100645.28
2023-03-16T17:03:43.002Z,100644.69
2023-03-16T17:06:16.879Z,100643.69
2023-03-16T17:08:44.547Z,100648.72
2023-03-16T17:11:24.904Z,100650.38
2023-03-16T17:13:52.797Z,100646.84
2023-03-16T17:16:21.934Z,100655.91
2023-03-16T17:18:49.506Z,100635.88
2023-03-16T17:21:19.689Z,100647.34
2023-03-16T17:23:47.853Z,100644.06
2023-03-16T17:26:18.017Z,100654.53
2023-03-16T17:28:52.907Z,100654.38
2023-03-16T17:31:25.769Z,100665.13
2023-03-16T17:33:53.965Z,100657.28
2023-03-16T17:36:21.380Z,100663.84
2023-03-16T17:38:48.321Z,100655.03
2023-03-16T17:41:27.145Z,100666.31
2023-03-16T17:43:57.062Z,100667.25
2023-03-16T17:46:27.217Z,100661.44
2023-03-16T17:48:55.985Z,100664.31
2023-03-16T17:51:25.921Z,100671.31
2023-03-16T17:53:53.965Z,100663.16
2023-03-16T17:56:24.554Z,100667.53
2023-03-16T17:58:52.369Z,100671.44
2023-03-16T18:01:26.388Z,100676.06
2023-03-16T18:03:52.921Z,100684.97
2023-03-16T18:06:23.245Z,100674.53
2023-03-16T18:08:49.658Z,100676.19
2023-03-16T18:11:20.819Z,100675.22
2023-03-16T18:13:49.648Z,100676.88
2023-03-16T18:16:23.320Z,100685.75
2023-03-16T18:18:58.371Z,100678.28
2023-03-16T18:21:25.639Z,100684.81
2023-03-16T18:23:52.979Z,100674.09
2023-03-16T18:26:20.528Z,100672.91
2023-03-16T18:28:47.066Z,100671.34
2023-03-16T18:31:26.296Z,100667.31
2023-03-16T18:33:59.532Z,100657.84
2023-03-16T18:36:32.191Z,100663.25
2023-03-16T18:39:00.956Z,100660.78
2023-03-16T18:41:33.467Z,100660.88
2023-03-16T18:44:05.631Z,100663.94
2023-03-16T18:46:35.343Z,100671.53
2023-03-16T18:49:12.080Z,100671.28
2023-03-16T18:51:38.645Z,100677.31
2023-03-16T18:54:27.630Z,100667.00
2023-03-16T18:56:54.803Z,100661.50
2023-03-16T18:59:21.337Z,100664.25
2023-03-16T19:01:48.265Z,100663.41
2023-03-16T19:04:27.207Z,100671.22
2023-03-16T19:06:54.877Z,100668.13
2023-03-16T19:09:30.101Z,100669.09
2023-03-16T19:11:57.521Z,100671.19
2023-03-16T19:14:30.743Z,100672.03
2023-03-16T19:16:58.354Z,100656.22
2023-03-16T19:19:25.138Z,100665.78
2023-03-16T19:21:58.160Z,100664.25
2023-03-16T19:24:28.875Z,100673.84
2023-03-16T19:26:55.475Z,100664.03
2023-03-16T19:29:29.720Z,100670.19
2023-03-16T19:31:57.355Z,100661.38
2023-03-16T19:34:24.029Z,100669.81
2023-03-16T19:36:51.005Z,100679.50
2023-03-16T19:39:17.456Z,100670.25
2023-03-16T19:41:55.229Z,100667.41
2023-03-16T19:44:25.243Z,100655.66
2023-03-16T19:46:52.078Z,100668.06
2023-03-16T19:49:27.899Z,100668.69
2023-03-16T19:51:55.942Z,100662.28
2023-03-16T19:54:28.609Z,100658.34
2023-03-16T19:56:57.983Z,100649.84
2023-03-16T19:59:28.676Z,100638.78
2023-03-16T20:01:55.021Z,100644.13
2023-03-16T20:04:24.405Z,100641.72
2023-03-16T20:06:51.638Z,100623.50
2023-03-16T20:09:18.352Z,100628.84
2023-03-16T20:11:45.462Z,100623.84
2023-03-16T20:14:21.072Z,100624.78
2023-03-16T20:16:48.228Z,100624.69
2023-03-16T20:19:15.878Z,100628.22
2023-03-16T20:21:43.060Z,100620.63
2023-03-16T20:24:19.148Z,100615.03
2023-03-16T20:26:47.862Z,100622.59
2023-03-16T20:29:34.562Z,100627.00
2023-03-16T20:32:02.986Z,100621.41
2023-03-16T20:34:31.400Z,100611.78
2023-03-16T20:36:58.508Z,100596.41
2023-03-16T20:39:25.574Z,100601.63
2023-03-16T20:41:52.520Z,100590.47
2023-03-16T20:44:20.725Z,100583.50
2023-03-16T20:46:47.868Z,100580.88
2023-03-16T20:49:25.168Z,100585.56
2023-03-16T20:51:51.868Z,100588.59
2023-03-16T20:54:18.641Z,100580.56
2023-03-16T20:56:45.239Z,100576.19
2023-03-16T20:59:20.132Z,100554.53
2023-03-16T21:01:47.141Z,100561.38
2023-03-16T21:04:20.838Z,100573.78
2023-03-16T21:06:50.754Z,100561.84
2023-03-16T21:09:19.162Z,100556.19
2023-03-16T21:11:46.645Z,100545.50
2023-03-16T21:14:23.877Z,100552.16
2023-03-16T21:16:51.419Z,100537.69
2023-03-16T21:19:22.816Z,100531.66
2023-03-16T21:21:50.220Z,100541.03
2023-03-16T21:24:16.858Z,100543.72
2023-03-16T21:26:44.512Z,100541.22
2023-03-16T21:29:16.327Z,100530.72
2023-03-16T21:31:43.164Z,100516.84
2023-03-16T21:34:27.848Z,100528.09
2023-03-16T21:36:54.403Z,100524.56
2023-03-16T21:39:23.688Z,100517.69
2023-03-16T21:41:50.753Z,100530.81
2023-03-16T21:44:17.421Z,100533.41
2023-03-16T21:46:43.950Z,100520.78
2023-03-16T21:49:12.058Z,100508.84
2023-03-16T21:51:42.812Z,100508.09
2023-03-16T21:54:12.648Z,100508.31
2023-03-16T21:56:39.113Z,100501.69
2023-03-16T21:59:05.815Z,100513.03
2023-03-16T22:01:33.873Z,100506.91
2023-03-16T22:04:06.890Z,100506.78
2023-03-16T22:06:33.455Z,100496.16
2023-03-16T22:09:00.665Z,100498.75
2023-03-16T22:11:29.617Z,100484.28
2023-03-16T22:13:58.000Z,100489.59
2023-03-16T22:16:37.205Z,100474.59
2023-03-16T22:19:04.242Z,100492.72
2023-03-16T22:21:37.609Z,100493.88
2023-03-16T22:24:07.633Z,100499.09
2023-03-16T22:26:34.116Z,100487.94
2023-03-16T22:29:01.904Z,100484.06
2023-03-16T22:31:34.668Z,100487.28
2023-03-16T22:34:03.036Z,100482.06
2023-03-16T22:36:31.442Z,100470.59
2023-03-16T22:39:08.805Z,100476.66
2023-03-16T22:41:35.475Z,100483.28
2023-03-16T22:44:02.112Z,100473.81
2023-03-16T22:46:29.608Z,100468.50
2023-03-16T22:48:57.203Z,100481.19
2023-03-16T22:51:34.406Z,100487.97
2023-03-16T22:54:04.668Z,100486.50
2023-03-16T22:56:33.101Z,100486.41
2023-03-16T22:59:04.179Z,100484.75
2023-03-16T23:01:37.515Z,100485.56
2023-03-16T23:04:14.463Z,100463.78
2023-03-16T23:06:41.006Z,100472.69
2023-03-16T23:09:07.968Z,100479.88
2023-03-16T23:11:37.733Z,100467.91
2023-03-16T23:14:16.873Z,100464.59
2023-03-16T23:16:44.423Z,100469.78
2023-03-16T23:19:34.256Z,100457.31
2023-03-16T23:22:04.845Z,100451.41
2023-03-16T23:24:35.387Z,100454.63
2023-03-16T23:27:02.675Z,100458.97
2023-03-16T23:29:29.976Z,100441.59
2023-03-16T23:31:56.765Z,100464.94
2023-03-16T23:34:24.850Z,100443.34
2023-03-16T23:36:51.930Z,100437.22
2023-03-16T23:39:18.641Z,100432.84
2023-03-16T23:41:47.679Z,100440.03
2023-03-16T23:44:25.495Z,100448.47
2023-03-16T23:46:52.957Z,100453.66
2023-03-16T23:49:24.143Z,100461.47
2023-03-16T23:51:52.016Z,100467.53
2023-03-16T23:54:27.730Z,100475.81
2023-03-16T23:56:54.325Z,100489.69
2023-03-16T23:59:23.182Z,100499.16
